createdAt,value
2018-07-04T00:00:47.165Z,45.2
2018-07-04T00:02:50.012Z,45.2
2018-07-04T00:04:52.848Z,45.2
2018-07-04T00:06:55.692Z,45.2
2018-07-04T00:08:58.533Z,45.2
2018-07-04T00:11:01.380Z,45.2
2018-07-04T00:13:04.218Z,45.2
2018-07-04T00:15:07.065Z,45.2
2018-07-04T00:17:09.916Z,45.2
2018-07-04T00:19:12.753Z,45.3
2018-07-04T00:21:15.593Z,45.3
2018-07-04T00:23:18.434Z,45.3
2018-07-04T00:25:21.279Z,45.4
2018-07-04T00:27:24.178Z,45.5
2018-07-04T00:29:27.020Z,45.4
2018-07-04T00:31:29.864Z,45.4
2018-07-04T00:33:32.703Z,45.6
2018-07-04T00:35:35.545Z,45.7
2018-07-04T00:37:38.388Z,45.7
2018-07-04T00:39:41.228Z,45.7
2018-07-04T00:41:44.072Z,45.7
2018-07-04T00:43:46.917Z,45.6
2018-07-04T00:45:49.757Z,45.7
2018-07-04T00:47:52.599Z,45.7
2018-07-04T00:49:55.440Z,45.7
2018-07-04T00:51:58.284Z,45.6
2018-07-04T00:54:01.125Z,45.6
2018-07-04T00:56:04.086Z,45.7
2018-07-04T00:58:06.929Z,45.7
2018-07-04T01:00:09.770Z,45.7
2018-07-04T01:02:12.614Z,45.7
2018-07-04T01:04:15.529Z,45.8
2018-07-04T01:06:18.371Z,45.8
2018-07-04T01:08:21.213Z,45.8
2018-07-04T01:10:24.059Z,46
2018-07-04T01:12:26.901Z,45.9
2018-07-04T01:14:29.743Z,45.9
2018-07-04T01:16:32.593Z,45.9
2018-07-04T01:18:35.435Z,45.8
2018-07-04T01:20:38.342Z,45.8
2018-07-04T01:22:41.182Z,45.8
2018-07-04T01:24:44.023Z,45.7
2018-07-04T01:26:46.867Z,45.7
2018-07-04T01:28:49.712Z,45.7
2018-07-04T01:30:52.550Z,45.6
2018-07-04T01:32:55.392Z,45.7
2018-07-04T01:34:58.234Z,45.6
2018-07-04T01:37:01.076Z,45.6
2018-07-04T01:39:03.919Z,45.6
2018-07-04T01:41:06.760Z,45.6
2018-07-04T01:43:09.605Z,45.4
2018-07-04T01:45:12.447Z,45.4
2018-07-04T01:47:15.386Z,45.4
2018-07-04T01:49:18.184Z,45.4
2018-07-04T01:51:21.026Z,45.4
2018-07-04T01:53:23.866Z,45.5
2018-07-04T01:55:26.709Z,45.3
2018-07-04T01:57:29.554Z,45.4
2018-07-04T01:59:32.394Z,45.4
2018-07-04T02:01:35.236Z,45.3
2018-07-04T02:03:38.079Z,45.4
2018-07-04T02:05:40.921Z,45.5
2018-07-04T02:07:43.763Z,45.4
2018-07-04T02:09:46.605Z,45.4
2018-07-04T02:11:49.447Z,45.4
2018-07-04T02:13:52.290Z,45.4
2018-07-04T02:15:55.134Z,45.5
2018-07-04T02:17:57.973Z,45.5
2018-07-04T02:20:00.816Z,45.4
2018-07-04T02:22:03.674Z,45.5
2018-07-04T02:24:06.513Z,45.6
2018-07-04T02:26:09.368Z,45.7
2018-07-04T02:28:12.209Z,45.5
2018-07-04T02:30:15.143Z,45.4
2018-07-04T02:32:18.000Z,45.5
2018-07-04T02:34:20.828Z,45.4
2018-07-04T02:36:23.671Z,45.3
2018-07-04T02:38:26.510Z,45.4
2018-07-04T02:40:29.354Z,45.4
2018-07-04T02:42:32.197Z,45.4
2018-07-04T02:44:35.039Z,45.4
2018-07-04T02:46:37.887Z,45.3
2018-07-04T02:48:40.767Z,45.5
2018-07-04T02:50:43.565Z,45.4
2018-07-04T02:52:46.407Z,45.4
2018-07-04T02:54:49.250Z,45.4
2018-07-04T02:56:52.133Z,45.5
2018-07-04T02:58:54.999Z,45.4
2018-07-04T03:00:57.874Z,45.5
2018-07-04T03:03:00.720Z,45.5
2018-07-04T03:05:03.563Z,45.4
2018-07-04T03:07:06.446Z,45.8
2018-07-04T03:09:09.288Z,45.6
2018-07-04T03:11:12.130Z,45.6
2018-07-04T03:13:14.976Z,45.7
2018-07-04T03:15:17.815Z,45.7
2018-07-04T03:17:20.658Z,45.5
2018-07-04T03:19:23.733Z,45.4
2018-07-04T03:21:26.575Z,45.4
2018-07-04T03:23:29.457Z,45.3
2018-07-04T03:25:32.298Z,45.3
2018-07-04T03:27:35.141Z,45.5
2018-07-04T03:29:37.991Z,45.7
2018-07-04T03:31:40.832Z,45.6
2018-07-04T03:33:43.673Z,45.5
2018-07-04T03:35:46.516Z,45.4
2018-07-04T03:37:49.359Z,45.4
2018-07-04T03:39:52.208Z,45.4
2018-07-04T03:41:55.047Z,45.3
2018-07-04T03:43:57.892Z,45.2
2018-07-04T03:46:00.732Z,45.2
2018-07-04T03:48:03.604Z,45.3
2018-07-04T03:50:09.309Z,45.4
2018-07-04T03:52:12.154Z,45.3
2018-07-04T03:54:14.995Z,45.2
2018-07-04T03:56:17.843Z,45.1
2018-07-04T03:58:20.684Z,45.2
2018-07-04T04:00:26.235Z,45.2
2018-07-04T04:02:29.026Z,45
2018-07-04T04:04:31.871Z,45.2
2018-07-04T04:06:34.708Z,45.4
2018-07-04T04:08:37.590Z,45.1
2018-07-04T04:10:40.431Z,45.2
2018-07-04T04:12:43.273Z,45.2
2018-07-04T04:14:46.115Z,45.1
2018-07-04T04:16:48.998Z,45.1
2018-07-04T04:18:51.838Z,45.3
2018-07-04T04:20:54.683Z,45.3
2018-07-04T04:22:57.577Z,45.5
2018-07-04T04:25:00.430Z,45.4
2018-07-04T04:27:03.366Z,45
2018-07-04T04:29:06.200Z,45.3
2018-07-04T04:31:09.260Z,45.4
2018-07-04T04:31:51.547Z,48.2
2018-07-04T04:33:54.491Z,47.2
2018-07-04T04:35:57.397Z,47.9
2018-07-04T04:38:00.247Z,48.4
2018-07-04T04:40:03.080Z,49.3
2018-07-04T04:42:05.921Z,50
2018-07-04T04:44:08.761Z,50.1
2018-07-04T04:46:11.609Z,50.5
2018-07-04T04:48:14.449Z,50.6
2018-07-04T04:50:17.290Z,51
2018-07-04T04:52:21.113Z,51.1
2018-07-04T04:54:23.909Z,50.9
2018-07-04T04:56:26.753Z,50.4
2018-07-04T04:58:29.595Z,50.3
2018-07-04T05:00:32.439Z,50.3
2018-07-04T05:02:35.279Z,50
2018-07-04T05:04:38.144Z,50.6
2018-07-04T05:06:40.984Z,50.9
2018-07-04T05:08:43.832Z,50.9
2018-07-04T05:10:46.671Z,50.8
2018-07-04T05:12:49.510Z,50.6
2018-07-04T05:14:52.355Z,50.6
2018-07-04T05:16:55.197Z,50.6
2018-07-04T05:18:58.040Z,50.6
2018-07-04T05:21:01.019Z,50.5
2018-07-04T05:23:03.873Z,50.5
2018-07-04T05:25:06.717Z,50.5
2018-07-04T05:27:09.559Z,50.5
2018-07-04T05:29:12.405Z,50.5
2018-07-04T05:31:15.272Z,50.6
2018-07-04T05:33:18.115Z,50.6
2018-07-04T05:35:20.977Z,50.7
2018-07-04T05:37:23.815Z,50.7
2018-07-04T05:39:26.658Z,50.6
2018-07-04T05:41:29.499Z,50.7
2018-07-04T05:43:32.345Z,50.7
2018-07-04T05:45:35.186Z,50.7
2018-07-04T05:47:38.063Z,50.7
2018-07-04T05:49:41.071Z,50.7
2018-07-04T05:51:43.917Z,50.8
2018-07-04T05:53:46.757Z,50.7
2018-07-04T05:55:49.598Z,50.7
2018-07-04T05:57:52.541Z,50.7
2018-07-04T05:59:55.624Z,50.8
2018-07-04T06:01:58.472Z,50.7
2018-07-04T06:04:01.318Z,50.7
2018-07-04T06:06:04.160Z,50.8
2018-07-04T06:08:07.001Z,50.7
2018-07-04T06:10:09.842Z,50.7
2018-07-04T06:12:12.688Z,50.8
2018-07-04T06:14:15.530Z,50.8
2018-07-04T06:16:18.388Z,50.9
2018-07-04T06:18:21.299Z,50.8
2018-07-04T06:20:27.281Z,50.8
2018-07-04T06:22:30.121Z,50.8
2018-07-04T06:24:32.993Z,50.9
2018-07-04T06:26:35.837Z,50.9
2018-07-04T06:28:38.681Z,50.9
2018-07-04T06:30:41.525Z,50.8
2018-07-04T06:32:44.600Z,50.8
2018-07-04T06:34:47.441Z,50.9
2018-07-04T06:36:50.301Z,50.9
2018-07-04T06:38:53.138Z,50.9
2018-07-04T06:40:56.005Z,50.8
2018-07-04T06:42:58.848Z,50.8
2018-07-04T06:45:01.690Z,50.8
2018-07-04T06:47:04.580Z,50.8
2018-07-04T06:49:07.538Z,50.8
2018-07-04T06:51:10.416Z,50.8
2018-07-04T06:53:13.256Z,50.7
2018-07-04T06:55:16.099Z,50.8
2018-07-04T06:57:18.941Z,50.7
2018-07-04T06:59:21.784Z,50.7
2018-07-04T07:01:24.625Z,50.7
2018-07-04T07:03:27.487Z,50.7
2018-07-04T07:05:30.358Z,50.7
2018-07-04T07:07:33.199Z,50.7
2018-07-04T07:09:36.053Z,50.7
2018-07-04T07:11:38.896Z,50.8
2018-07-04T07:13:41.737Z,50.8
2018-07-04T07:15:44.584Z,50.8
2018-07-04T07:17:47.435Z,50.7
2018-07-04T07:19:50.268Z,50.7
2018-07-04T07:21:53.112Z,50.7
2018-07-04T07:23:55.953Z,50.7
2018-07-04T07:25:58.799Z,50.8
2018-07-04T07:28:01.687Z,50.8
2018-07-04T07:30:04.536Z,50.8
2018-07-04T07:32:07.475Z,50.8
2018-07-04T07:34:10.850Z,50.8
2018-07-04T07:36:14.412Z,50.8
2018-07-04T07:38:17.257Z,50.8
2018-07-04T07:40:20.097Z,50.8
2018-07-04T07:42:22.971Z,50.8
2018-07-04T07:44:25.818Z,50.8
2018-07-04T07:46:28.688Z,50.8
2018-07-04T07:48:31.525Z,50.8
2018-07-04T07:50:34.372Z,50.8
2018-07-04T07:52:37.216Z,50.8
2018-07-04T07:54:40.058Z,50.8
2018-07-04T07:56:42.905Z,50.8
2018-07-04T07:58:45.760Z,50.9
2018-07-04T08:00:48.598Z,50.8
2018-07-04T08:02:51.448Z,50.9
2018-07-04T08:04:54.292Z,50.9
2018-07-04T08:06:57.128Z,50.9
2018-07-04T08:08:59.970Z,50.9
2018-07-04T08:11:02.823Z,50.9
2018-07-04T08:13:05.667Z,50.8
2018-07-04T08:15:08.530Z,50.8
2018-07-04T08:17:11.390Z,50.8
2018-07-04T08:19:14.236Z,50.9
2018-07-04T08:21:17.093Z,50.8
2018-07-04T08:23:19.945Z,50.9
2018-07-04T08:25:22.800Z,50.8
2018-07-04T08:27:25.649Z,50.8
2018-07-04T08:29:28.504Z,50.8
2018-07-04T08:31:31.339Z,50.8
2018-07-04T08:33:34.343Z,50.8
2018-07-04T08:35:37.409Z,50.8
2018-07-04T08:37:40.260Z,50.9
2018-07-04T08:39:43.102Z,50.8
2018-07-04T08:41:45.957Z,50.8
2018-07-04T08:43:48.792Z,50.7
2018-07-04T08:45:51.677Z,50.8
2018-07-04T08:47:54.519Z,50.7
2018-07-04T08:49:57.377Z,50.8
2018-07-04T08:52:00.247Z,50.8
2018-07-04T08:54:03.108Z,50.9
2018-07-04T08:56:05.958Z,50.9
2018-07-04T08:58:08.809Z,50.8
2018-07-04T09:00:11.651Z,50.8
2018-07-04T09:02:14.536Z,50.8
2018-07-04T09:04:17.393Z,50.8
2018-07-04T09:06:20.234Z,50.8
2018-07-04T09:08:23.088Z,50.8
2018-07-04T09:10:25.926Z,50.8
2018-07-04T09:12:28.807Z,50.8
2018-07-04T09:14:32.602Z,50.8
2018-07-04T09:16:35.452Z,50.8
2018-07-04T09:18:38.301Z,50.8
2018-07-04T09:20:41.153Z,50.9
2018-07-04T09:22:43.991Z,50.9
2018-07-04T09:24:46.853Z,50.8
2018-07-04T09:26:49.694Z,50.8
2018-07-04T09:28:53.517Z,50.8
2018-07-04T09:30:56.403Z,50.8
2018-07-04T09:32:59.336Z,50.7
2018-07-04T09:35:02.196Z,50.8
2018-07-04T09:37:05.043Z,50.8
2018-07-04T09:39:07.918Z,50.8
2018-07-04T09:41:10.757Z,50.8
2018-07-04T09:43:13.605Z,50.7
2018-07-04T09:45:17.396Z,50.7
2018-07-04T09:47:20.255Z,50.7
2018-07-04T09:49:23.103Z,50.8
2018-07-04T09:51:25.961Z,50.8
2018-07-04T09:53:31.509Z,50.8
2018-07-04T09:55:34.363Z,50.7
2018-07-04T09:57:37.223Z,50.7
2018-07-04T09:59:40.073Z,50.7
2018-07-04T10:01:48.845Z,50.8
2018-07-04T10:03:51.694Z,50.8
2018-07-04T10:05:54.579Z,50.8
2018-07-04T10:07:57.426Z,50.8
2018-07-04T10:10:00.269Z,50.8
2018-07-04T10:12:03.112Z,50.8
2018-07-04T10:14:05.963Z,50.7
2018-07-04T10:16:08.844Z,50.7
2018-07-04T10:18:11.750Z,50.8
2018-07-04T10:20:14.650Z,50.8
2018-07-04T10:22:17.527Z,50.7
2018-07-04T10:24:20.366Z,50.8
2018-07-04T10:33:47.913Z,50.7
2018-07-04T10:35:50.760Z,50.8
2018-07-04T10:37:53.701Z,50.7
2018-07-04T10:39:56.544Z,50.8
2018-07-04T10:41:59.464Z,50.8
2018-07-04T10:44:02.288Z,50.8
2018-07-04T10:46:05.136Z,50.8
2018-07-04T10:48:07.974Z,50.7
2018-07-04T10:50:10.829Z,50.7
2018-07-04T10:52:13.678Z,50.7
2018-07-04T10:54:17.537Z,50.8
2018-07-04T10:56:20.388Z,50.8
2018-07-04T10:58:23.299Z,50.8
2018-07-04T11:00:26.136Z,50.8
2018-07-04T11:02:28.994Z,50.7
2018-07-04T11:04:31.915Z,50.7
2018-07-04T11:06:34.806Z,50.7
2018-07-04T11:08:37.654Z,50.6
2018-07-04T11:10:40.540Z,50.6
2018-07-04T11:12:43.384Z,50.7
2018-07-04T11:14:46.225Z,50.7
2018-07-04T11:16:49.239Z,50.7
2018-07-04T11:18:52.249Z,50.7
2018-07-04T11:20:55.101Z,50.6
2018-07-04T11:22:57.966Z,50.6
2018-07-04T11:25:00.810Z,50.7
2018-07-04T11:27:03.668Z,50.8
2018-07-04T11:29:06.510Z,50.7
2018-07-04T11:31:09.352Z,50.7
2018-07-04T11:33:12.236Z,50.6
2018-07-04T11:35:15.088Z,50.7
2018-07-04T11:37:17.986Z,50.5
2018-07-04T11:39:20.832Z,50.6
2018-07-04T11:41:23.671Z,50.6
2018-07-04T11:43:26.529Z,50.7
2018-07-04T11:45:29.391Z,50.7
2018-07-04T11:47:32.249Z,50.7
2018-07-04T11:49:35.257Z,50.5
2018-07-04T11:51:38.195Z,50.7
2018-07-04T11:53:41.051Z,50.7
2018-07-04T11:55:43.903Z,50.7
2018-07-04T11:57:46.751Z,50.7
2018-07-04T11:59:49.611Z,50.7
2018-07-04T12:01:52.692Z,50.7
2018-07-04T12:03:55.653Z,50.8
2018-07-04T12:05:58.507Z,51.1
2018-07-04T12:08:01.355Z,50.8
2018-07-04T12:10:04.236Z,50.6
2018-07-04T12:12:07.082Z,50.7
2018-07-04T12:14:09.940Z,50.8
2018-07-04T12:16:12.780Z,50.8
2018-07-04T12:18:15.660Z,50.7
2018-07-04T12:20:18.530Z,50.7
2018-07-04T12:22:21.370Z,50.8
2018-07-04T12:24:24.217Z,50.6
2018-07-04T12:26:27.091Z,50.6
2018-07-04T12:28:29.938Z,50.6
2018-07-04T12:30:33.773Z,50.6
2018-07-04T12:32:36.631Z,50.6
2018-07-04T12:34:39.510Z,50.7
2018-07-04T12:36:42.370Z,50.6
2018-07-04T12:38:45.204Z,50.6
2018-07-04T12:40:48.064Z,50.7
2018-07-04T12:42:50.900Z,50.7
2018-07-04T12:44:53.753Z,50.6
2018-07-04T12:46:56.669Z,50.5
2018-07-04T12:48:59.560Z,50.5
2018-07-04T12:51:02.491Z,50.6
2018-07-04T12:53:05.375Z,50.6
2018-07-04T12:55:08.234Z,50.5
2018-07-04T12:57:11.103Z,50.6
2018-07-04T12:59:13.941Z,50.5
2018-07-04T13:01:16.785Z,50.6
2018-07-04T13:03:19.634Z,50.5
2018-07-04T13:05:22.672Z,50.5
2018-07-04T13:07:25.606Z,50.5
2018-07-04T13:09:28.480Z,50.6
2018-07-04T13:11:31.528Z,50.4
2018-07-04T13:13:34.375Z,50.5
2018-07-04T13:15:37.223Z,50.5
2018-07-04T13:17:40.071Z,50.5
2018-07-04T13:19:43.345Z,50.5
2018-07-04T13:21:46.176Z,50.5
2018-07-04T13:23:49.093Z,50.5
2018-07-04T13:25:52.238Z,50.5
2018-07-04T13:27:55.715Z,50.5
2018-07-04T13:29:58.559Z,50.5
2018-07-04T13:32:01.626Z,50.5
2018-07-04T13:34:04.600Z,50.6
2018-07-04T13:36:07.445Z,50.5
2018-07-04T13:38:10.287Z,50.4
2018-07-04T13:40:13.130Z,50.5
2018-07-04T13:42:15.974Z,50.4
2018-07-04T13:44:18.912Z,50.6
2018-07-04T13:46:21.727Z,50.4
2018-07-04T13:48:24.564Z,50.5
2018-07-04T13:50:27.405Z,50.5
2018-07-04T13:52:30.254Z,50.5
2018-07-04T13:54:33.092Z,50.4
2018-07-04T13:56:35.939Z,50.6
2018-07-04T13:58:38.779Z,50.5
2018-07-04T14:00:41.629Z,50.3
2018-07-04T14:02:44.696Z,50.4
2018-07-04T14:04:47.970Z,50.5
2018-07-04T14:06:50.814Z,50.3
2018-07-04T14:08:53.657Z,50.3
2018-07-04T14:10:56.504Z,50.3
2018-07-04T14:12:59.347Z,50.2
2018-07-04T14:15:02.195Z,50.3
2018-07-04T14:17:05.038Z,50.3
2018-07-04T14:19:07.921Z,50.3
2018-07-04T14:21:10.780Z,50.3
2018-07-04T14:23:13.621Z,50.2
2018-07-04T14:25:16.464Z,50.2
2018-07-04T14:27:19.303Z,50.2
2018-07-04T14:29:22.147Z,50.2
2018-07-04T14:31:24.991Z,50.1
2018-07-04T14:33:27.836Z,50.2
2018-07-04T14:35:30.673Z,50.1
2018-07-04T14:37:33.554Z,50.3
2018-07-04T14:39:36.396Z,50.2
2018-07-04T14:41:39.249Z,50.2
2018-07-04T14:43:42.112Z,50.2
2018-07-04T14:45:44.935Z,50.2
2018-07-04T14:47:47.776Z,50.2
2018-07-04T14:49:50.627Z,50.2
2018-07-04T14:51:53.460Z,50.2
2018-07-04T14:53:56.363Z,50.3
2018-07-04T14:55:59.205Z,50.3
2018-07-04T14:58:02.049Z,50.3
2018-07-04T15:00:04.898Z,50.2
2018-07-04T15:02:07.915Z,50.3
2018-07-04T15:04:11.325Z,50.2
2018-07-04T15:06:14.206Z,50.2
2018-07-04T15:08:17.052Z,50.2
2018-07-04T15:10:20.824Z,50.3
2018-07-04T15:12:23.670Z,50.2
2018-07-04T15:14:26.510Z,49.9
2018-07-04T15:16:29.437Z,49.7
2018-07-04T15:18:32.553Z,48.8
2018-07-04T15:20:35.391Z,48
2018-07-04T15:22:38.242Z,47.6
2018-07-04T15:24:41.076Z,47.1
2018-07-04T15:26:43.921Z,46.7
2018-07-04T15:28:46.768Z,46.6
2018-07-04T15:30:49.605Z,46.9
2018-07-04T15:32:52.450Z,47
2018-07-04T15:34:55.291Z,46.9
2018-07-04T15:36:58.133Z,47.7
2018-07-04T15:39:01.284Z,47.9
2018-07-04T15:41:04.077Z,48.1
2018-07-04T15:43:07.095Z,48.4
2018-07-04T15:45:09.959Z,48.6
2018-07-04T15:47:12.806Z,48.8
2018-07-04T15:49:15.646Z,48.9
2018-07-04T15:51:18.491Z,48.8
2018-07-04T15:53:21.333Z,48.9
2018-07-04T15:55:24.220Z,49
2018-07-04T15:57:27.060Z,49.1
2018-07-04T15:59:30.082Z,49.5
2018-07-04T16:01:33.124Z,49.6
2018-07-04T16:03:35.970Z,49.8
2018-07-04T16:05:38.861Z,50.5
2018-07-04T16:07:42.688Z,50.8
2018-07-04T16:09:45.529Z,51.1
2018-07-04T16:11:48.373Z,51.4
2018-07-04T16:13:51.488Z,51.9
2018-07-04T16:15:54.400Z,52.1
2018-07-04T16:17:57.241Z,52
2018-07-04T16:20:00.097Z,52.1
2018-07-04T16:22:02.963Z,52
2018-07-04T16:24:05.848Z,51.9
2018-07-04T16:26:08.690Z,52.4
2018-07-04T16:28:11.534Z,52.2
2018-07-04T16:30:14.381Z,52.7
2018-07-04T16:32:17.223Z,52.8
2018-07-04T16:34:20.066Z,52.3
2018-07-04T16:36:22.911Z,52.3
2018-07-04T16:38:25.755Z,52.2
2018-07-04T16:40:28.601Z,51.8
2018-07-04T16:42:31.443Z,52.1
2018-07-04T16:44:34.306Z,52.6
2018-07-04T16:46:37.174Z,51.9
2018-07-04T16:48:40.034Z,52.7
2018-07-04T16:50:42.879Z,52.3
2018-07-04T16:52:45.721Z,53.5
2018-07-04T16:54:48.567Z,53.5
2018-07-04T16:56:51.413Z,53.4
2018-07-04T16:58:54.254Z,53.3
2018-07-04T17:00:57.097Z,53
2018-07-04T17:02:59.945Z,52.5
2018-07-04T17:05:05.526Z,52.9
2018-07-04T17:07:08.376Z,52.2
2018-07-04T17:09:11.213Z,53.3
2018-07-04T17:11:14.056Z,53.6
2018-07-04T17:13:16.899Z,53.5
2018-07-04T17:15:19.785Z,53.6
2018-07-04T17:17:22.630Z,53.9
2018-07-04T17:19:25.478Z,54
2018-07-04T17:21:28.321Z,53.7
2018-07-04T17:23:31.163Z,53.6
2018-07-04T17:25:34.008Z,53.3
2018-07-04T17:27:36.868Z,52.8
2018-07-04T17:29:39.710Z,52.8
2018-07-04T17:31:42.583Z,51.9
2018-07-04T17:33:45.542Z,51.1
2018-07-04T17:35:48.390Z,51.6
2018-07-04T17:37:51.237Z,51.1
2018-07-04T17:39:54.076Z,50.4
2018-07-04T17:41:56.919Z,49.9
2018-07-04T17:44:02.629Z,49.9
2018-07-04T17:46:05.478Z,49.8
2018-07-04T17:48:08.330Z,49.4
2018-07-04T17:50:11.172Z,49.2
2018-07-04T17:52:14.018Z,50
2018-07-04T17:54:16.862Z,48.7
2018-07-04T17:56:19.710Z,49.4
2018-07-04T17:58:22.576Z,47.7
2018-07-04T18:00:25.419Z,47.3
2018-07-04T18:02:31.324Z,47.7
2018-07-04T18:04:34.164Z,46.9
2018-07-04T18:06:37.014Z,47.1
2018-07-04T18:08:39.855Z,47.5
2018-07-04T18:10:42.699Z,47.3
2018-07-04T18:12:45.541Z,46.9
2018-07-04T18:14:48.387Z,46.9
2018-07-04T18:16:51.231Z,47.2
2018-07-04T18:18:54.074Z,47.6
2018-07-04T18:20:56.917Z,47.9
2018-07-04T18:22:59.762Z,47.9
2018-07-04T18:25:02.637Z,47.9
2018-07-04T18:27:05.482Z,48.2
2018-07-04T18:29:08.323Z,47.9
2018-07-04T18:31:11.166Z,47.9
2018-07-04T18:33:14.016Z,47.7
2018-07-04T18:35:16.858Z,47.8
2018-07-04T18:37:19.702Z,47.5
2018-07-04T18:39:25.320Z,47.2
2018-07-04T18:41:28.120Z,47.1
2018-07-04T18:43:31.000Z,47.1
2018-07-04T18:45:33.851Z,47.4
2018-07-04T18:47:36.693Z,47.3
2018-07-04T18:49:39.537Z,47.3
2018-07-04T18:51:42.591Z,47.2
2018-07-04T18:53:45.507Z,47.1
2018-07-04T18:55:48.777Z,47
2018-07-04T18:57:51.672Z,47
2018-07-04T18:59:54.528Z,47
2018-07-04T19:01:57.369Z,46.9
2018-07-04T19:04:00.213Z,47
2018-07-04T19:06:03.061Z,46.9
2018-07-04T19:08:06.833Z,46.8
2018-07-04T19:10:09.676Z,46.8
2018-07-04T19:12:12.523Z,46.9
2018-07-04T19:14:15.394Z,46.8
2018-07-04T19:16:18.244Z,47.1
2018-07-04T19:18:21.087Z,47.2
2018-07-04T19:20:23.941Z,47.7
2018-07-04T19:22:26.789Z,47.5
2018-07-04T19:24:29.625Z,47.7
2018-07-04T19:26:32.505Z,48
2018-07-04T19:28:35.352Z,48.1
2018-07-04T19:30:38.195Z,48.1
2018-07-04T19:32:41.040Z,48
2018-07-04T19:34:43.928Z,48.2
2018-07-04T19:36:46.772Z,48.4
2018-07-04T19:38:49.619Z,48.2
2018-07-04T19:40:52.475Z,48.1
2018-07-04T19:42:55.344Z,48.1
2018-07-04T19:44:58.171Z,48
2018-07-04T19:47:01.027Z,48.1
2018-07-04T19:49:03.867Z,47.9
2018-07-04T19:51:09.483Z,48
2018-07-04T19:53:12.270Z,48
2018-07-04T19:55:15.119Z,47.7
2018-07-04T19:57:17.964Z,47.2
2018-07-04T19:59:20.810Z,46.9
2018-07-04T20:01:23.677Z,46.8
2018-07-04T20:03:26.529Z,47
2018-07-04T20:05:29.376Z,46.8
2018-07-04T20:07:32.223Z,46.5
2018-07-04T20:09:35.081Z,46.2
2018-07-04T20:11:37.929Z,46.1
2018-07-04T20:13:40.793Z,46
2018-07-04T20:15:43.637Z,45.8
2018-07-04T20:17:46.538Z,45.9
2018-07-04T20:19:49.357Z,45.8
2018-07-04T20:21:52.750Z,45.7
2018-07-04T20:23:56.022Z,45.6
2018-07-04T20:25:58.869Z,45.7
2018-07-04T20:28:01.717Z,45.8
2018-07-04T20:30:04.560Z,45.6
2018-07-04T20:32:07.398Z,45.8
2018-07-04T20:34:10.244Z,45.7
2018-07-04T20:36:13.087Z,45.6
2018-07-04T20:38:15.935Z,45.8
2018-07-04T20:40:18.773Z,46.3
2018-07-04T20:42:21.619Z,46.1
2018-07-04T20:44:24.461Z,45.8
2018-07-04T20:46:27.307Z,45.8
2018-07-04T20:48:30.153Z,46.1
2018-07-04T20:50:32.991Z,46.1
2018-07-04T20:52:35.837Z,45.6
2018-07-04T20:54:38.728Z,45.7
2018-07-04T20:56:41.573Z,45.9
2018-07-04T20:58:44.415Z,45.6
2018-07-04T21:00:47.267Z,45.6
2018-07-04T21:02:50.109Z,45.8
2018-07-04T21:04:52.954Z,45.6
2018-07-04T21:06:56.021Z,45.7
2018-07-04T21:08:59.357Z,45.5
2018-07-04T21:11:02.196Z,45.3
2018-07-04T21:13:05.268Z,45.1
2018-07-04T21:15:08.116Z,45.1
2018-07-04T21:17:10.956Z,45.1
2018-07-04T21:19:13.799Z,44.9
2018-07-04T21:21:17.691Z,44.8
2018-07-04T21:23:20.527Z,44.9
2018-07-04T21:25:23.380Z,44.7
2018-07-04T21:27:26.232Z,44.8
2018-07-04T21:29:29.066Z,44.6
2018-07-04T21:31:32.024Z,44.5
2018-07-04T21:33:34.851Z,44.7
2018-07-04T21:35:37.688Z,44.4
2018-07-04T21:37:40.544Z,44.4
2018-07-04T21:39:43.396Z,44.6
2018-07-04T21:41:49.368Z,44.6
2018-07-04T21:43:52.172Z,44.6
2018-07-04T21:45:55.017Z,44.7
2018-07-04T21:47:57.909Z,44.5
2018-07-04T21:50:00.755Z,44.3
2018-07-04T21:52:03.779Z,44.6
2018-07-04T21:54:06.622Z,43.9
2018-07-04T21:56:09.475Z,43.8
2018-07-04T21:58:12.360Z,44.1
2018-07-04T22:00:15.187Z,44.2
2018-07-04T22:02:18.035Z,44.4
2018-07-04T22:04:21.080Z,43.9
2018-07-04T22:06:24.230Z,44.1
2018-07-04T22:08:27.080Z,44.7
2018-07-04T22:10:29.921Z,43.7
2018-07-04T22:12:32.770Z,43.4
2018-07-04T22:14:35.639Z,43.6
2018-07-04T22:16:38.494Z,43.1
2018-07-04T22:18:41.324Z,43.1
2018-07-04T22:20:44.170Z,43.2
2018-07-04T22:22:47.027Z,43.4
2018-07-04T22:24:50.855Z,43.3
2018-07-04T22:26:53.662Z,43.4
2018-07-04T22:28:56.500Z,43
2018-07-04T22:30:59.364Z,43.1
2018-07-04T22:33:02.217Z,43.4
2018-07-04T22:35:05.056Z,42.9
2018-07-04T22:37:07.901Z,42.9
2018-07-04T22:39:10.760Z,42.6
2018-07-04T22:41:13.620Z,42.8
2018-07-04T22:43:16.483Z,42.8
2018-07-04T22:45:22.079Z,42.9
2018-07-04T22:47:25.839Z,42.8
2018-07-04T22:49:28.683Z,41.9
2018-07-04T22:51:31.537Z,42.1
2018-07-04T22:53:34.376Z,42.1
2018-07-04T22:55:37.226Z,41.8
2018-07-04T22:57:40.104Z,42
2018-07-04T22:59:42.945Z,42
2018-07-04T23:01:45.784Z,42.2
2018-07-04T23:03:51.624Z,42.4
2018-07-04T23:05:54.464Z,42.6
2018-07-04T23:07:57.308Z,42.6
2018-07-04T23:10:00.152Z,42.4
2018-07-04T23:12:02.992Z,42.7
2018-07-04T23:14:05.837Z,42.6
2018-07-04T23:16:08.676Z,42.6
2018-07-04T23:18:11.702Z,42.5
2018-07-04T23:20:14.544Z,42.6
2018-07-04T23:22:17.385Z,42.9
2018-07-04T23:24:20.226Z,42.6
2018-07-04T23:26:23.070Z,42.7
2018-07-04T23:28:25.911Z,42.7
2018-07-04T23:30:28.756Z,43.2
2018-07-04T23:32:31.600Z,42.9
2018-07-04T23:34:34.438Z,42.8
2018-07-04T23:36:37.278Z,42.8
2018-07-04T23:38:40.123Z,42.8
2018-07-04T23:40:42.965Z,43.1
2018-07-04T23:42:45.807Z,43
2018-07-04T23:44:48.730Z,42.7
2018-07-04T23:46:52.125Z,42.8
2018-07-04T23:48:54.970Z,43
2018-07-04T23:50:57.810Z,42.9
2018-07-04T23:53:00.653Z,43
2018-07-04T23:55:03.497Z,43
2018-07-04T23:57:06.339Z,43
2018-07-04T23:59:09.182Z,43.1
